Impacts TAF Board
For situational awareness. Not to be used for flight planning purposes.
IDs:

KMSY - New Orleans/Armstron, LA, US

Issued at 1808 UTC 03 Jul 2020
Updated at 1816 UTC 03 Jul 2020
Potential Impact None Slight Moderate High
Time1805Z 03/19Z 03/20Z 03/21Z 03/22Z 03/23Z 04/00Z 04/01Z 04/02Z 04/03Z 04/04Z 04/05Z 04/06Z 04/07Z>>
Type OBS PRVL
  [TEMP]  
PRVL
  [TEMP]  
PRVL
  [TEMP]  
PRVL PRVL PRVL PRVL PRVL PRVL PRVL PRVL PRVL PRVL
VIS 10 >6
  [1]  
>6
  [1]  
>6
  [1]  
>6 >6 >6 >6 >6 >6 >6 >6 >6 >6
CIG 19 35
  [20]  
35
  [20]  
35
  [20]  
35 35 35 35 35 35 100 100 100 100
Cover OVC BKN
  [OVC]  
BKN
  [OVC]  
BKN
  [OVC]  
BKN BKN BKN BKN BKN BKN BKN BKN BKN BKN
FltCat MVFR VFR
  [IFR]  
VFR
  [IFR]  
VFR
  [IFR]  
VFR VFR VFR VFR VFR VFR VFR VFR VFR VFR
WX TS VCTS
  [+TSRA]  
VCTS
  [+TSRA]  
VCTS
  [+TSRA]  
VCTS VCTS VCTS VCTS VCTS VCTS -- -- -- --
WDir 190 10
[VRB]
10
[VRB]
10
[VRB]
10 10 10 10 10 10 340 340 340 340
WSpd 9 11
  [40]  
11
  [40]  
11
  [40]  
11 11 11 11 11 11 5 5 5 5
WGst -- --
  [--]  
--
  [--]  
--
  [--]  
-- -- -- -- -- -- -- -- -- --
R01/19
XWnd -1 1 1 1 1 1 1 1 1 1 3 3 3 3
XGst -- 0 0 0 -- -- -- -- -- -- -- -- -- --
HWnd -9 11 11 11 11 11 11 11 11 11 4 4 4 4
HGst -- 0 0 0 -- -- -- -- -- -- -- -- -- --
R10/28
XWnd -9 11 11 11 11 11 11 11 11 11 4 4 4 4
XGst -- 0 0 0 -- -- -- -- -- -- -- -- -- --
HWnd 1 -1 -1 -1 -1 -1 -1 -1 -1 -1 -3 -3 -3 -3
HGst -- 0 0 0 -- -- -- -- -- -- -- -- -- --
Raw TAF
KMSY 031808Z 0318/0424 01011KT P6SM VCTS SCT020CB BKN035 BKN250
  TEMPO 0318/0322 VRB40KT 1SM +TSRA BKN020CB OVC035
  FM040400 34005KT P6SM SCT045 BKN100
  FM041300 VRB04KT P6SM -SHRA SCT001 BKN030


Raw METAR
KMSY 031805Z 19009KT 10SM TS BKN019CB BKN034 BKN130 OVC250 28/23 A2997 RMK AO2 WSHFT 1745 LTG DSNT ALQDS TSB1755 OCNL LTGICCG W-NW TS W-NW MOV S CB DSNT N AND SE-SW T02830233
KMSY 031756Z 19014G21KT 10SM TS BKN019CB BKN034 BKN130 OVC250 28/23 A2997 RMK AO2 LTG DSNT ALQDS TSB55 OCNL LTGICCG NW TS NW MOV S CB DSNT N AND SE-W T02780228
KMSY 031753Z 18012G21KT 10SM SCT019 BKN130 BKN250 28/22 A2996 RMK AO2 LTG DSNT ALQDS TSE27 SLP149 CB DSNT NW-N AND SE-SW T02780222 10333 20278 55008
KMSY 031728Z 06009G15KT 9SM SCT019 BKN130 BKN250 32/26 A2996 RMK AO2 LTG DSNT ALQDS TSE27 CB DSNT NW-N AND SE-SW T03220261
KMSY 031653Z 01011KT 9SM TS SCT019CB BKN130 BKN250 33/26 A2996 RMK AO2 LTG DSNT SE-SW TSB24 SLP148 OCNL LTGICCG SW TS SW MOV S CB DSNT S T03280261
KMSY 031625Z 33009KT 8SM TS BKN017CB BKN043 BKN130 OVC250 32/26 A2997 RMK AO2 LTG DSNT SE-W TSB24 OCNL LTGICCG SW TS SW MOV S CB DSNT S T03220256
KMSY 031553Z 35010KT 8SM BKN020 BKN130 OVC250 32/26 A2997 RMK AO2 LTG DSNT SE-SW TSB25E50 SLP152 CB DSNT SW T03220261

METAR Board
Radar Display
Forecast Discussion
For situational awareness. Not to be used for flight planning purposes.